Time;durP1;ratioP1;P1;durP2;ratioP2;P2;SDS_P1;SDS_P2;PMS_P1;PMS_P2;Temp;Humidity;BMP_temperature;BMP_pressure;BME280_temperature;BME280_humidity;BME280_pressure;Samples;Min_cycle;Max_cycle;Signal;HPM_P1;HPM_P2
2022/12/11 00:00:44;;;;;;;51.10;26.38;;;;;;;;;;5000086;28;20022;-75
2022/12/11 00:03:10;;;;;;;56.03;26.85;;;;;;;;;;5017980;28;20519;-75
2022/12/11 00:05:39;;;;;;;55.03;25.75;;;;;;;;;;5018294;28;20057;-76
2022/12/11 00:08:07;;;;;;;55.40;28.25;;;;;;;;;;5017791;28;20083;-76
2022/12/11 00:10:33;;;;;;;49.45;25.95;;;;;;;;;;5017983;28;20506;-75
2022/12/11 00:13:01;;;;;;;49.90;25.77;;;;;;;;;;4996946;28;20026;-77
2022/12/11 00:15:28;;;;;;;56.88;27.80;;;;;;;;;;4998923;28;20030;-77
2022/12/11 00:17:54;;;;;;;51.90;27.40;;;;;;;;;;5015941;28;20373;-75
2022/12/11 00:20:20;;;;;;;55.33;28.23;;;;;;;;;;4998251;28;20411;-75
2022/12/11 00:22:46;;;;;;;52.45;27.02;;;;;;;;;;4999175;28;20022;-75
2022/12/11 00:25:12;;;;;;;56.08;28.23;;;;;;;;;;5016972;28;20101;-76
2022/12/11 00:27:38;;;;;;;52.90;25.88;;;;;;;;;;5010680;28;20507;-76
2022/12/11 00:30:06;;;;;;;55.88;29.55;;;;;;;;;;5017784;28;20064;-77
2022/12/11 00:32:33;;;;;;;56.70;28.00;;;;;;;;;;5016620;28;20026;-76
2022/12/11 00:34:59;;;;;;;54.78;27.17;;;;;;;;;;5016790;28;20030;-74
2022/12/11 00:37:25;;;;;;;56.47;28.08;;;;;;;;;;5036556;28;20028;-74
2022/12/11 00:39:54;;;;;;;49.22;25.58;;;;;;;;;;5035861;28;20547;-75
2022/12/11 00:42:20;;;;;;;56.47;27.38;;;;;;;;;;5017621;28;20080;-74
2022/12/11 00:44:46;;;;;;;58.92;28.13;;;;;;;;;;5016681;28;20392;-75
2022/12/11 00:47:12;;;;;;;55.33;28.17;;;;;;;;;;5034664;28;20053;-74
2022/12/11 00:49:40;;;;;;;55.92;29.08;;;;;;;;;;5016904;28;20443;-74
2022/12/11 00:52:06;;;;;;;50.30;26.15;;;;;;;;;;5016649;28;20086;-74
2022/12/11 00:54:33;;;;;;;53.22;25.95;;;;;;;;;;5034657;28;20442;-75
2022/12/11 00:57:01;;;;;;;47.40;23.05;;;;;;;;;;5034091;28;20510;-75
2022/12/11 00:59:28;;;;;;;50.03;25.30;;;;;;;;;;5034038;28;20038;-75
2022/12/11 01:01:54;;;;;;;49.25;25.52;;;;;;;;;;5034128;28;20033;-75
2022/12/11 01:04:20;;;;;;;50.83;26.75;;;;;;;;;;5016629;28;20040;-75
2022/12/11 01:06:49;;;;;;;49.25;24.45;;;;;;;;;;5033917;28;20021;-75
2022/12/11 01:11:59;;;;;;;53.88;28.13;;;;;;;;;;5035223;28;20172;-75
2022/12/11 01:14:26;;;;;;;52.20;26.45;;;;;;;;;;5035731;28;20032;-75
2022/12/11 01:16:52;;;;;;;54.63;26.73;;;;;;;;;;5035363;28;20029;-75
2022/12/11 01:19:21;;;;;;;55.38;27.20;;;;;;;;;;5016880;28;20037;-75
2022/12/11 01:21:47;;;;;;;55.05;26.73;;;;;;;;;;5016959;28;20072;-76
2022/12/11 01:24:15;;;;;;;62.67;28.90;;;;;;;;;;5034405;28;20033;-74
2022/12/11 01:26:41;;;;;;;54.30;28.05;;;;;;;;;;5016223;28;20189;-75
2022/12/11 01:29:07;;;;;;;60.10;28.27;;;;;;;;;;5033772;28;20242;-75
2022/12/11 01:31:33;;;;;;;52.25;26.75;;;;;;;;;;5034886;28;20022;-75
2022/12/11 01:34:01;;;;;;;47.70;25.00;;;;;;;;;;5035351;28;20087;-75
2022/12/11 01:36:27;;;;;;;57.35;26.13;;;;;;;;;;5035044;28;20048;-75
2022/12/11 01:38:53;;;;;;;49.63;26.30;;;;;;;;;;5035467;28;20356;-75
2022/12/11 01:41:20;;;;;;;56.17;27.05;;;;;;;;;;5015707;28;20498;-74
2022/12/11 01:44:00;;;;;;;50.95;26.92;;;;;;;;;;5032909;28;20472;-74
2022/12/11 01:46:29;;;;;;;57.20;28.95;;;;;;;;;;5032972;28;20068;-75
2022/12/11 01:48:55;;;;;;;55.90;27.83;;;;;;;;;;5032277;28;20025;-74
2022/12/11 01:51:22;;;;;;;48.30;24.88;;;;;;;;;;5033226;28;20021;-75
2022/12/11 01:53:51;;;;;;;54.70;27.35;;;;;;;;;;5033086;28;20034;-75
2022/12/11 01:56:17;;;;;;;54.70;26.38;;;;;;;;;;5032591;28;20030;-74
2022/12/11 01:58:50;;;;;;;50.67;25.45;;;;;;;;;;5032914;28;20041;-74
2022/12/11 02:01:38;;;;;;;51.47;25.85;;;;;;;;;;5032574;28;20531;-76
2022/12/11 02:04:04;;;;;;;55.17;25.35;;;;;;;;;;5032656;28;20033;-74
2022/12/11 02:06:32;;;;;;;54.08;27.08;;;;;;;;;;5032159;28;20041;-74
2022/12/11 02:08:58;;;;;;;49.70;25.80;;;;;;;;;;5032412;28;20060;-74
2022/12/11 02:11:28;;;;;;;47.10;24.98;;;;;;;;;;5032778;28;20072;-74
2022/12/11 02:14:01;;;;;;;49.08;27.10;;;;;;;;;;5032425;28;20365;-75
2022/12/11 02:16:41;;;;;;;49.55;25.95;;;;;;;;;;5032103;28;20033;-74
2022/12/11 02:19:15;;;;;;;50.17;25.98;;;;;;;;;;5031892;28;20095;-74
2022/12/11 02:21:43;;;;;;;47.47;25.38;;;;;;;;;;5014372;28;20072;-74
2022/12/11 02:24:27;;;;;;;51.30;26.33;;;;;;;;;;5032323;28;20041;-75
2022/12/11 02:26:54;;;;;;;43.25;23.70;;;;;;;;;;5024537;28;20079;-74
2022/12/11 02:29:30;;;;;;;48.30;25.00;;;;;;;;;;5031665;28;20167;-74
2022/12/11 02:32:00;;;;;;;53.47;25.33;;;;;;;;;;5032332;28;20163;-75
2022/12/11 02:34:34;;;;;;;52.67;24.35;;;;;;;;;;5013894;28;20167;-75
2022/12/11 02:37:05;;;;;;;51.13;25.83;;;;;;;;;;5032237;28;20029;-75
2022/12/11 02:39:32;;;;;;;48.20;24.08;;;;;;;;;;5033435;28;20033;-76
2022/12/11 02:41:59;;;;;;;50.22;24.98;;;;;;;;;;5032272;28;20104;-75
2022/12/11 02:44:27;;;;;;;43.55;23.30;;;;;;;;;;5032222;28;20108;-75
2022/12/11 02:46:54;;;;;;;44.33;23.50;;;;;;;;;;5032017;28;20021;-77
2022/12/11 02:49:21;;;;;;;43.80;22.30;;;;;;;;;;5032476;28;20017;-76
2022/12/11 02:51:47;;;;;;;42.55;20.92;;;;;;;;;;5033453;28;20022;-76
2022/12/11 02:54:19;;;;;;;41.22;20.75;;;;;;;;;;5032384;28;20030;-75
2022/12/11 02:57:01;;;;;;;42.10;21.63;;;;;;;;;;5016772;28;20472;-75
2022/12/11 02:59:33;;;;;;;36.72;19.08;;;;;;;;;;5014757;28;20039;-74
2022/12/11 03:01:59;;;;;;;40.50;20.38;;;;;;;;;;5032317;28;20030;-75
2022/12/11 03:04:25;;;;;;;38.78;19.58;;;;;;;;;;5014516;28;20113;-75
2022/12/11 03:06:59;;;;;;;37.45;19.65;;;;;;;;;;5031804;28;20025;-75
2022/12/11 03:09:26;;;;;;;40.42;19.30;;;;;;;;;;5032159;28;20079;-75
2022/12/11 03:11:52;;;;;;;38.60;20.15;;;;;;;;;;5032568;28;20026;-74
2022/12/11 03:14:18;;;;;;;38.05;19.88;;;;;;;;;;5032907;28;20479;-76
2022/12/11 03:16:49;;;;;;;42.75;18.90;;;;;;;;;;5031650;28;20032;-75
2022/12/11 03:19:15;;;;;;;37.40;18.65;;;;;;;;;;5031489;28;20052;-75
2022/12/11 03:21:41;;;;;;;39.85;20.13;;;;;;;;;;5031712;28;20029;-75
2022/12/11 03:24:07;;;;;;;38.75;21.00;;;;;;;;;;5026158;28;20487;-74
2022/12/11 03:26:37;;;;;;;38.47;19.52;;;;;;;;;;5030804;28;20030;-75
2022/12/11 03:29:07;;;;;;;36.40;20.30;;;;;;;;;;5023467;28;20391;-76
2022/12/11 03:31:40;;;;;;;42.58;22.50;;;;;;;;;;5031575;28;20026;-75
2022/12/11 03:34:27;;;;;;;38.72;20.48;;;;;;;;;;5013735;28;20029;-74
2022/12/11 03:36:55;;;;;;;32.55;18.58;;;;;;;;;;5000709;28;20547;-75
2022/12/11 03:39:31;;;;;;;32.88;17.33;;;;;;;;;;5011819;28;20026;-76
2022/12/11 03:41:57;;;;;;;32.45;18.13;;;;;;;;;;5011818;28;20507;-76
2022/12/11 03:44:24;;;;;;;39.80;18.40;;;;;;;;;;5011779;28;20030;-75
2022/12/11 03:46:51;;;;;;;33.10;18.00;;;;;;;;;;5007809;28;20040;-75
2022/12/11 03:49:19;;;;;;;37.20;19.67;;;;;;;;;;5004069;28;20053;-78
2022/12/11 03:51:46;;;;;;;32.92;17.98;;;;;;;;;;5011282;28;20101;-75
2022/12/11 03:54:12;;;;;;;35.85;18.90;;;;;;;;;;4996911;28;20080;-75
2022/12/11 03:56:40;;;;;;;36.38;18.70;;;;;;;;;;5012810;28;20029;-76
2022/12/11 03:59:08;;;;;;;38.40;19.92;;;;;;;;;;5013676;28;20068;-76
2022/12/11 04:01:35;;;;;;;34.25;17.40;;;;;;;;;;5013935;28;20387;-76
2022/12/11 04:04:04;;;;;;;34.50;18.38;;;;;;;;;;5014043;28;20026;-76
2022/12/11 04:06:30;;;;;;;34.92;18.85;;;;;;;;;;5013783;28;20061;-76
2022/12/11 04:08:56;;;;;;;33.38;17.38;;;;;;;;;;4995385;28;20022;-75
2022/12/11 04:11:34;;;;;;;32.72;16.92;;;;;;;;;;5014647;28;20584;-75
2022/12/11 04:16:54;;;;;;;29.60;15.90;;;;;;;;;;5000958;28;20044;-74
2022/12/11 04:24:50;;;;;;;27.02;15.35;;;;;;;;;;5033406;28;20040;-73
2022/12/11 04:30:14;;;;;;;28.70;14.13;;;;;;;;;;4991775;28;20026;-75
2022/12/11 04:32:40;;;;;;;28.98;14.75;;;;;;;;;;4998898;28;20468;-77
2022/12/11 04:35:07;;;;;;;32.38;16.60;;;;;;;;;;5015925;28;20647;-75
2022/12/11 04:37:33;;;;;;;28.13;15.38;;;;;;;;;;5034382;28;20040;-75
2022/12/11 04:39:59;;;;;;;30.83;16.15;;;;;;;;;;5034622;28;20502;-75
2022/12/11 04:42:25;;;;;;;30.02;16.08;;;;;;;;;;5034241;28;20026;-74
2022/12/11 04:44:51;;;;;;;29.63;16.38;;;;;;;;;;5034561;28;20396;-74
2022/12/11 04:47:17;;;;;;;37.70;18.25;;;;;;;;;;5034423;28;20029;-75
2022/12/11 04:49:43;;;;;;;33.63;18.02;;;;;;;;;;5017872;28;20032;-75
2022/12/11 04:52:09;;;;;;;34.60;18.92;;;;;;;;;;5036840;28;20029;-75
2022/12/11 04:54:35;;;;;;;36.33;19.08;;;;;;;;;;5019897;28;20101;-74
2022/12/11 04:57:01;;;;;;;34.00;18.52;;;;;;;;;;5037176;28;20025;-75
2022/12/11 04:59:28;;;;;;;35.30;19.30;;;;;;;;;;5041921;28;20384;-75
2022/12/11 05:01:54;;;;;;;42.55;20.88;;;;;;;;;;5025234;28;20056;-75
2022/12/11 05:04:22;;;;;;;39.25;20.50;;;;;;;;;;5040733;28;20025;-76
2022/12/11 05:06:49;;;;;;;35.80;18.90;;;;;;;;;;5040166;28;20029;-75
2022/12/11 05:09:15;;;;;;;32.63;19.15;;;;;;;;;;5020907;28;20028;-77
2022/12/11 05:11:41;;;;;;;32.33;17.60;;;;;;;;;;5016983;28;20055;-75
2022/12/11 05:14:07;;;;;;;35.03;17.08;;;;;;;;;;5016408;28;20104;-75
2022/12/11 05:16:33;;;;;;;31.02;16.67;;;;;;;;;;5033642;28;20029;-76
2022/12/11 05:18:59;;;;;;;31.67;16.88;;;;;;;;;;5033396;28;20103;-75
2022/12/11 05:21:25;;;;;;;30.92;16.88;;;;;;;;;;5016075;28;20025;-77
2022/12/11 05:23:51;;;;;;;30.15;17.40;;;;;;;;;;5033419;28;20049;-76
2022/12/11 05:26:19;;;;;;;34.97;17.48;;;;;;;;;;5008188;28;20021;-76
2022/12/11 05:28:45;;;;;;;37.10;19.02;;;;;;;;;;5015440;28;20107;-75
2022/12/11 05:31:11;;;;;;;36.25;18.35;;;;;;;;;;5015491;28;20041;-76
2022/12/11 05:33:37;;;;;;;43.85;20.27;;;;;;;;;;5016102;28;20445;-77
2022/12/11 05:36:03;;;;;;;43.17;20.90;;;;;;;;;;5015842;28;20037;-76
2022/12/11 05:38:32;;;;;;;43.28;20.58;;;;;;;;;;5016333;28;20558;-75
2022/12/11 05:41:02;;;;;;;42.42;20.85;;;;;;;;;;5015585;28;20032;-75
2022/12/11 05:43:32;;;;;;;41.27;19.53;;;;;;;;;;5015467;28;20029;-76
2022/12/11 05:46:11;;;;;;;38.25;17.55;;;;;;;;;;5033044;28;20733;-76
2022/12/11 05:48:38;;;;;;;34.83;17.50;;;;;;;;;;5015359;28;20034;-74
2022/12/11 05:51:04;;;;;;;33.15;17.52;;;;;;;;;;5033508;28;20490;-76
2022/12/11 05:53:31;;;;;;;34.78;17.73;;;;;;;;;;5033903;28;20025;-76
2022/12/11 05:56:07;;;;;;;32.20;17.33;;;;;;;;;;5034402;28;20030;-76
2022/12/11 05:58:34;;;;;;;33.92;17.52;;;;;;;;;;5015753;28;20087;-76
2022/12/11 06:01:00;;;;;;;32.40;17.27;;;;;;;;;;5015393;28;20026;-76
2022/12/11 06:03:26;;;;;;;30.05;16.52;;;;;;;;;;5032872;28;20018;-75
2022/12/11 06:05:52;;;;;;;30.85;15.82;;;;;;;;;;5014961;28;20125;-75
2022/12/11 06:08:18;;;;;;;31.17;15.50;;;;;;;;;;5014629;28;20079;-75
2022/12/11 06:10:46;;;;;;;27.17;14.98;;;;;;;;;;5032028;28;20029;-74
2022/12/11 06:13:12;;;;;;;27.92;15.02;;;;;;;;;;5032791;28;20017;-75
2022/12/11 06:15:58;;;;;;;26.67;14.88;;;;;;;;;;5015671;28;20026;-75
2022/12/11 06:18:24;;;;;;;27.67;14.07;;;;;;;;;;5015388;28;20163;-75
2022/12/11 06:20:50;;;;;;;29.88;14.07;;;;;;;;;;5016048;28;20060;-75
2022/12/11 06:23:16;;;;;;;24.65;13.52;;;;;;;;;;5016364;28;20064;-75
2022/12/11 06:25:42;;;;;;;26.27;14.18;;;;;;;;;;5032944;28;20047;-75
2022/12/11 06:28:08;;;;;;;26.83;14.40;;;;;;;;;;5032794;28;20387;-75
2022/12/11 06:30:36;;;;;;;24.65;14.60;;;;;;;;;;5033225;28;20049;-75
2022/12/11 06:33:02;;;;;;;29.17;14.45;;;;;;;;;;5032994;28;20028;-76
2022/12/11 06:35:28;;;;;;;24.55;13.00;;;;;;;;;;5027504;28;20033;-75
2022/12/11 06:37:56;;;;;;;25.48;13.50;;;;;;;;;;5012367;28;20030;-76
2022/12/11 06:40:22;;;;;;;25.27;12.85;;;;;;;;;;4994569;28;20056;-75
2022/12/11 06:42:53;;;;;;;22.13;13.38;;;;;;;;;;4995077;28;20108;-74
2022/12/11 06:45:19;;;;;;;22.67;11.95;;;;;;;;;;5012431;28;20034;-76
2022/12/11 06:47:48;;;;;;;21.10;12.48;;;;;;;;;;5012322;28;20256;-76
2022/12/11 06:50:14;;;;;;;24.23;12.95;;;;;;;;;;4994857;28;20034;-76
2022/12/11 06:52:40;;;;;;;25.13;14.23;;;;;;;;;;4996434;28;20037;-76
2022/12/11 06:55:06;;;;;;;28.88;14.95;;;;;;;;;;4994834;28;20084;-75
2022/12/11 06:57:33;;;;;;;28.27;14.00;;;;;;;;;;4994777;28;20022;-76
2022/12/11 06:59:59;;;;;;;26.02;14.00;;;;;;;;;;4994850;28;20117;-76
2022/12/11 07:02:25;;;;;;;26.65;13.52;;;;;;;;;;4994615;28;20052;-75
2022/12/11 07:04:51;;;;;;;29.42;14.13;;;;;;;;;;5012219;28;20029;-75
2022/12/11 07:07:18;;;;;;;28.67;14.63;;;;;;;;;;5010789;28;20362;-75
2022/12/11 07:09:44;;;;;;;29.80;14.30;;;;;;;;;;5010251;28;20026;-79
2022/12/11 07:12:10;;;;;;;21.52;12.57;;;;;;;;;;5011925;28;20076;-76
2022/12/11 07:14:37;;;;;;;23.15;12.95;;;;;;;;;;5011697;28;20048;-78
2022/12/11 07:17:03;;;;;;;22.73;12.50;;;;;;;;;;5011638;28;20539;-76
2022/12/11 07:19:30;;;;;;;23.55;12.93;;;;;;;;;;5011494;28;20068;-75
2022/12/11 07:21:56;;;;;;;23.55;12.45;;;;;;;;;;5014948;28;20030;-75
2022/12/11 07:24:22;;;;;;;27.13;13.13;;;;;;;;;;5015645;28;20538;-74
2022/12/11 07:26:48;;;;;;;24.83;13.35;;;;;;;;;;5008626;28;20061;-75
2022/12/11 07:29:14;;;;;;;25.50;12.95;;;;;;;;;;5015648;28;20021;-75
2022/12/11 07:31:40;;;;;;;30.10;14.55;;;;;;;;;;5015918;28;20484;-76
2022/12/11 07:34:07;;;;;;;25.13;14.00;;;;;;;;;;5015404;28;20026;-75
2022/12/11 07:36:33;;;;;;;29.50;14.48;;;;;;;;;;5014980;28;20065;-75
2022/12/11 07:39:00;;;;;;;27.33;13.57;;;;;;;;;;5015386;28;20034;-75
2022/12/11 07:41:27;;;;;;;25.15;13.63;;;;;;;;;;5015448;28;20080;-75
2022/12/11 07:43:54;;;;;;;28.40;13.43;;;;;;;;;;5015512;28;20025;-76
2022/12/11 07:46:21;;;;;;;23.45;12.35;;;;;;;;;;5015226;28;20033;-77
2022/12/11 07:48:48;;;;;;;24.27;12.32;;;;;;;;;;5016157;28;20028;-76
2022/12/11 07:51:14;;;;;;;20.67;11.20;;;;;;;;;;5015480;28;20037;-75
2022/12/11 07:53:40;;;;;;;21.63;12.10;;;;;;;;;;5014985;28;20026;-77
2022/12/11 07:56:06;;;;;;;21.83;11.82;;;;;;;;;;5015372;28;20022;-74
2022/12/11 07:58:32;;;;;;;25.58;13.20;;;;;;;;;;5015170;28;20100;-76
2022/12/11 08:00:58;;;;;;;24.08;12.60;;;;;;;;;;5015623;28;20369;-75
2022/12/11 08:03:24;;;;;;;24.48;13.43;;;;;;;;;;5015469;28;20388;-76
2022/12/11 08:05:51;;;;;;;24.63;13.70;;;;;;;;;;5015278;28;20029;-75
2022/12/11 08:08:17;;;;;;;21.73;12.77;;;;;;;;;;5015602;28;20037;-75
2022/12/11 08:10:43;;;;;;;22.40;12.27;;;;;;;;;;5016298;28;20082;-77
2022/12/11 08:13:11;;;;;;;23.77;12.18;;;;;;;;;;5015686;28;20445;-76
2022/12/11 08:15:40;;;;;;;23.67;12.95;;;;;;;;;;5016666;28;20468;-76
2022/12/11 08:18:18;;;;;;;21.77;12.77;;;;;;;;;;4999598;28;20026;-78
2022/12/11 08:20:45;;;;;;;24.95;12.40;;;;;;;;;;5016208;28;20514;-72
2022/12/11 08:23:11;;;;;;;25.75;13.15;;;;;;;;;;4997544;28;20377;-73
2022/12/11 08:25:37;;;;;;;26.92;13.00;;;;;;;;;;5014564;28;20089;-72
2022/12/11 08:28:03;;;;;;;28.00;13.15;;;;;;;;;;5012254;28;20022;-72
2022/12/11 08:30:46;;;;;;;23.58;12.40;;;;;;;;;;5017536;28;20109;-79
2022/12/11 08:33:17;;;;;;;23.92;13.25;;;;;;;;;;5016549;28;20030;-78
2022/12/11 08:41:16;;;;;;;24.05;13.00;;;;;;;;;;5412138;22;20052;-78
2022/12/11 08:50:15;;;;;;;22.20;11.18;;;;;;;;;;5116057;28;20173;-78
2022/12/11 09:02:33;;;;;;;22.98;12.60;;;;;;;;;;4996399;28;20056;-77
2022/12/11 09:05:23;;;;;;;;;;;;;;;;;;;;;
2022/12/11 09:11:23;;;;;;;;;;;;;;;;;;;;;
2022/12/11 09:14:29;;;;;;;28.13;12.65;;;;;;;;;;5074603;28;20032;-79
2022/12/11 09:35:40;;;;;;;22.98;12.65;;;;;;;;;;5067706;28;20056;-78
2022/12/11 09:38:44;;;;;;;20.20;12.00;;;;;;;;;;5059097;28;20131;-77
2022/12/11 09:41:40;;;;;;;21.70;12.63;;;;;;;;;;5043214;28;20024;-78
2022/12/11 09:50:38;;;;;;;21.30;11.82;;;;;;;;;;5072908;28;20555;-77
2022/12/11 09:53:28;;;;;;;22.60;12.00;;;;;;;;;;5041763;28;20021;-76
2022/12/11 09:56:13;;;;;;;23.45;11.50;;;;;;;;;;5047422;28;20029;-76
2022/12/11 09:59:16;;;;;;;21.40;11.43;;;;;;;;;;5051119;28;20375;-76
2022/12/11 10:02:28;;;;;;;22.48;12.30;;;;;;;;;;5064110;28;20029;-76
2022/12/11 10:05:25;;;;;;;;;;;;;;;;;;;;;
2022/12/11 10:08:20;;;;;;;22.58;11.73;;;;;;;;;;5072269;28;20051;-77
2022/12/11 10:14:17;;;;;;;21.35;10.82;;;;;;;;;;5048392;28;20103;-76
2022/12/11 10:19:40;;;;;;;22.25;11.70;;;;;;;;;;5071483;28;20033;-76
2022/12/11 10:22:38;;;;;;;17.80;10.15;;;;;;;;;;5071078;28;20032;-77
2022/12/11 10:25:21;;;;;;;21.45;11.52;;;;;;;;;;5105373;22;20039;-77
2022/12/11 10:28:17;;;;;;;20.73;11.48;;;;;;;;;;5032660;28;20052;-78
2022/12/11 10:34:28;;;;;;;22.33;10.98;;;;;;;;;;5044962;28;20450;-79
2022/12/11 10:36:56;;;;;;;20.65;11.27;;;;;;;;;;5016755;28;20072;-77
2022/12/11 10:39:25;;;;;;;24.95;11.98;;;;;;;;;;5026936;28;20404;-76
2022/12/11 10:41:57;;;;;;;19.52;10.98;;;;;;;;;;5010499;28;20034;-75
2022/12/11 10:44:34;;;;;;;19.33;10.90;;;;;;;;;;5028677;28;20033;-76
2022/12/11 10:47:05;;;;;;;20.95;10.82;;;;;;;;;;5031766;28;20030;-77
2022/12/11 10:49:44;;;;;;;18.25;10.60;;;;;;;;;;5021633;28;20020;-78
2022/12/11 10:52:14;;;;;;;21.42;11.38;;;;;;;;;;5026698;28;20037;-77
2022/12/11 10:54:47;;;;;;;22.13;11.83;;;;;;;;;;5010991;28;20595;-77
2022/12/11 10:57:33;;;;;;;17.10;9.75;;;;;;;;;;5015439;28;20025;-76
2022/12/11 11:00:10;;;;;;;18.52;10.57;;;;;;;;;;5011590;28;20476;-76
2022/12/11 11:02:40;;;;;;;17.65;10.57;;;;;;;;;;5030332;28;20068;-76
2022/12/11 11:05:15;;;;;;;19.63;9.88;;;;;;;;;;5035075;28;20025;-77
2022/12/11 11:07:41;;;;;;;16.63;9.32;;;;;;;;;;5032219;28;20064;-76
2022/12/11 11:10:13;;;;;;;18.60;11.13;;;;;;;;;;5023124;28;20438;-76
2022/12/11 11:12:51;;;;;;;17.30;10.68;;;;;;;;;;5011519;28;20021;-77
2022/12/11 11:15:19;;;;;;;19.60;11.13;;;;;;;;;;5027907;28;20150;-77
2022/12/11 11:17:53;;;;;;;18.40;10.95;;;;;;;;;;5023311;28;20029;-76
2022/12/11 11:20:27;;;;;;;17.15;10.15;;;;;;;;;;5036280;28;20029;-77
2022/12/11 11:22:54;;;;;;;17.58;9.93;;;;;;;;;;5014078;28;20067;-77
2022/12/11 11:25:22;;;;;;;26.60;13.13;;;;;;;;;;5026311;28;20029;-76
2022/12/11 11:28:02;;;;;;;19.52;10.80;;;;;;;;;;5009936;28;20069;-74
2022/12/11 11:30:38;;;;;;;16.60;9.13;;;;;;;;;;5025069;28;20043;-76
2022/12/11 11:36:35;;;;;;;13.25;8.52;;;;;;;;;;5115258;22;20041;-77
2022/12/11 11:39:05;;;;;;;14.60;8.23;;;;;;;;;;5027405;28;20024;-76
2022/12/11 11:42:01;;;;;;;15.95;9.20;;;;;;;;;;5054386;28;20059;-79
2022/12/11 11:47:34;;;;;;;16.20;9.23;;;;;;;;;;5025595;28;20045;-78
2022/12/11 11:50:16;;;;;;;21.27;9.10;;;;;;;;;;5032767;28;20077;-80
2022/12/11 11:53:03;;;;;;;17.98;8.88;;;;;;;;;;5033471;28;20052;-76
2022/12/11 11:56:06;;;;;;;17.25;8.82;;;;;;;;;;5033582;28;20080;-79
2022/12/11 12:01:51;;;;;;;16.67;9.60;;;;;;;;;;5009243;28;20618;-77
2022/12/11 12:07:30;;;;;;;16.52;9.95;;;;;;;;;;5030657;28;20415;-79
2022/12/11 12:10:18;;;;;;;16.13;9.90;;;;;;;;;;5032548;28;20029;-77
2022/12/11 12:13:02;;;;;;;18.02;10.27;;;;;;;;;;5032396;28;20020;-79
2022/12/11 12:16:10;;;;;;;17.08;9.88;;;;;;;;;;5027946;28;20026;-75
2022/12/11 12:18:57;;;;;;;19.48;10.85;;;;;;;;;;5011845;28;20026;-77
2022/12/11 12:21:36;;;;;;;16.92;10.38;;;;;;;;;;4994176;28;20022;-77
2022/12/11 12:24:15;;;;;;;17.63;10.15;;;;;;;;;;5025703;28;20137;-77
2022/12/11 12:26:45;;;;;;;17.70;10.05;;;;;;;;;;5024569;28;20041;-77
2022/12/11 12:29:36;;;;;;;18.92;11.40;;;;;;;;;;5032726;28;20020;-75
2022/12/11 12:32:28;;;;;;;16.40;9.67;;;;;;;;;;5026939;28;20030;-77
2022/12/11 12:35:03;;;;;;;18.65;11.43;;;;;;;;;;5028265;28;20041;-77
2022/12/11 12:38:13;;;;;;;;;;;;;;;;;;;;;
2022/12/11 12:40:45;;;;;;;18.07;11.33;;;;;;;;;;5030199;28;20029;-76
2022/12/11 12:43:30;;;;;;;19.17;11.00;;;;;;;;;;5037255;28;20499;-76
2022/12/11 12:46:20;;;;;;;18.23;10.00;;;;;;;;;;5022761;28;20156;-75
2022/12/11 12:48:50;;;;;;;17.67;9.47;;;;;;;;;;5025554;28;20488;-76
2022/12/11 12:51:33;;;;;;;20.38;10.65;;;;;;;;;;5028377;28;20021;-76
2022/12/11 12:54:17;;;;;;;17.55;10.00;;;;;;;;;;5035237;28;20089;-77
2022/12/11 12:57:12;;;;;;;19.92;10.20;;;;;;;;;;5034500;28;20494;-76
2022/12/11 12:59:38;;;;;;;18.75;10.07;;;;;;;;;;5031844;28;20056;-76
2022/12/11 13:02:27;;;;;;;13.90;9.27;;;;;;;;;;5018979;28;20123;-76
2022/12/11 13:05:18;;;;;;;16.40;10.13;;;;;;;;;;5032437;28;20103;-76
2022/12/11 13:08:07;;;;;;;14.30;8.10;;;;;;;;;;5029304;28;20038;-77
2022/12/11 13:13:47;;;;;;;16.25;8.98;;;;;;;;;;5036602;28;20032;-77
2022/12/11 13:16:45;;;;;;;16.83;9.93;;;;;;;;;;5005785;22;20061;-75
2022/12/11 13:19:24;;;;;;;16.55;9.52;;;;;;;;;;5072453;28;20040;-77
2022/12/11 13:22:08;;;;;;;15.93;9.30;;;;;;;;;;5076606;28;20397;-76
2022/12/11 13:24:47;;;;;;;17.17;9.15;;;;;;;;;;5076888;28;20036;-77
2022/12/11 13:27:48;;;;;;;16.45;9.35;;;;;;;;;;5062263;28;20025;-78
2022/12/11 13:30:38;;;;;;;19.35;9.98;;;;;;;;;;5010004;28;20091;-76
2022/12/11 13:33:06;;;;;;;19.75;12.35;;;;;;;;;;5060229;28;20390;-74
2022/12/11 13:35:37;;;;;;;21.77;11.90;;;;;;;;;;5057949;28;20066;-76
2022/12/11 13:38:15;;;;;;;23.17;13.00;;;;;;;;;;5064402;28;20025;-76
2022/12/11 13:41:17;;;;;;;;;;;;;;;;;;;;;
2022/12/11 13:43:57;;;;;;;21.15;12.18;;;;;;;;;;5037701;28;20035;-79
2022/12/11 13:46:44;;;;;;;24.35;13.63;;;;;;;;;;5071699;28;20036;-76
2022/12/11 13:49:20;;;;;;;23.20;12.57;;;;;;;;;;5064654;28;20048;-76
2022/12/11 13:51:51;;;;;;;22.67;12.52;;;;;;;;;;5056707;28;20116;-74
2022/12/11 13:54:17;;;;;;;;;;;;;;;;;;5053044;28;20112;-79
2022/12/11 13:57:03;;;;;;;18.23;10.80;;;;;;;;;;5061551;28;20361;-76
2022/12/11 13:59:32;;;;;;;17.52;10.38;;;;;;;;;;5051890;28;20013;-77
2022/12/11 14:02:03;;;;;;;18.95;10.45;;;;;;;;;;5052515;28;20147;-77
2022/12/11 14:04:29;;;;;;;;;;;;;;;;;;5081610;28;20029;-78
2022/12/11 14:06:56;;;;;;;20.55;11.82;;;;;;;;;;5083423;28;19995;-82
2022/12/11 14:09:31;;;;;;;20.55;12.48;;;;;;;;;;5080555;28;20025;-76
2022/12/11 14:12:01;;;;;;;19.48;12.15;;;;;;;;;;5066301;28;20027;-76
2022/12/11 14:14:32;;;;;;;20.48;11.82;;;;;;;;;;5065394;28;20029;-75
2022/12/11 14:19:58;;;;;;;20.67;10.95;;;;;;;;;;5061511;28;20445;-77
2022/12/11 14:22:35;;;;;;;20.48;12.07;;;;;;;;;;5069255;28;20016;-75
2022/12/11 14:25:16;;;;;;;23.30;13.18;;;;;;;;;;5091763;28;20127;-76
2022/12/11 14:28:04;;;;;;;24.92;13.35;;;;;;;;;;5080819;28;20461;-74
2022/12/11 14:30:44;;;;;;;23.02;12.35;;;;;;;;;;5071108;28;20436;-75
2022/12/11 14:33:29;;;;;;;21.58;11.75;;;;;;;;;;5061619;28;20069;-77
2022/12/11 14:36:16;;;;;;;20.92;11.57;;;;;;;;;;5077311;28;20062;-77
2022/12/11 14:39:16;;;;;;;22.48;13.45;;;;;;;;;;5076822;28;20069;-77
2022/12/11 14:45:10;;;;;;;;;;;;;;;;;;;;;
2022/12/11 14:47:41;;;;;;;29.38;13.85;;;;;;;;;;5089666;28;20528;-77
2022/12/11 14:50:13;;;;;;;24.45;13.88;;;;;;;;;;5058991;28;20027;-78
2022/12/11 14:52:49;;;;;;;23.52;14.15;;;;;;;;;;5091503;28;20339;-79
2022/12/11 14:55:31;;;;;;;31.75;15.73;;;;;;;;;;5091425;28;20016;-78
2022/12/11 15:01:56;;;;;;;27.23;14.88;;;;;;;;;;5083733;28;20111;-77
2022/12/11 15:08:06;;;;;;;30.10;14.23;;;;;;;;;;4962809;28;20038;-79
2022/12/11 15:14:37;;;;;;;;;;;;;;;;;;;;;
2022/12/11 15:17:17;;;;;;;32.33;15.32;;;;;;;;;;4959816;28;20045;-76
2022/12/11 15:19:50;;;;;;;28.40;16.38;;;;;;;;;;4989433;28;20042;-76
2022/12/11 15:26:17;;;;;;;29.25;16.20;;;;;;;;;;4926422;29;20035;-76
2022/12/11 15:28:52;;;;;;;31.30;17.30;;;;;;;;;;4956772;28;20028;-77
2022/12/11 15:31:39;;;;;;;28.05;16.00;;;;;;;;;;5048334;28;20160;-79
2022/12/11 15:37:38;;;;;;;;;;;;;;;;;;;;;
2022/12/11 15:40:54;;;;;;;;;;;;;;;;;;;;;
2022/12/11 15:49:00;;;;;;;29.17;16.05;;;;;;;;;;5044999;28;20037;-78
2022/12/11 15:51:39;;;;;;;29.80;15.75;;;;;;;;;;5046017;28;20045;-77
2022/12/11 15:54:13;;;;;;;25.67;14.20;;;;;;;;;;5029542;28;20017;-76
2022/12/11 15:56:49;;;;;;;28.85;14.93;;;;;;;;;;5038535;28;20017;-76
2022/12/11 15:59:15;;;;;;;25.95;14.32;;;;;;;;;;5046331;28;20021;-74
2022/12/11 16:01:41;;;;;;;30.70;15.88;;;;;;;;;;5046925;28;20104;-76
2022/12/11 16:04:07;;;;;;;30.92;17.00;;;;;;;;;;5021763;28;20022;-77
2022/12/11 16:07:06;;;;;;;29.42;16.33;;;;;;;;;;5052156;28;20028;-75
2022/12/11 16:09:34;;;;;;;26.58;14.75;;;;;;;;;;5042931;28;20017;-78
2022/12/11 16:12:00;;;;;;;28.67;15.63;;;;;;;;;;5041211;28;20029;-77
2022/12/11 16:14:26;;;;;;;29.83;15.93;;;;;;;;;;5021457;28;20058;-77
2022/12/11 16:16:55;;;;;;;29.33;15.52;;;;;;;;;;5051722;28;20019;-78
2022/12/11 16:19:41;;;;;;;26.85;14.35;;;;;;;;;;5052462;28;20017;-78
2022/12/11 16:22:13;;;;;;;27.67;14.68;;;;;;;;;;5029851;28;20102;-78
2022/12/11 16:27:57;;;;;;;29.40;16.67;;;;;;;;;;5041758;28;20164;-77
2022/12/11 16:30:49;;;;;;;30.38;14.52;;;;;;;;;;5052150;28;20017;-77
2022/12/11 16:33:18;;;;;;;26.17;14.80;;;;;;;;;;5045531;28;20341;-77
2022/12/11 16:35:46;;;;;;;27.75;15.85;;;;;;;;;;5028656;28;20029;-79
2022/12/11 16:38:12;;;;;;;28.65;15.07;;;;;;;;;;5037910;28;20037;-77
2022/12/11 16:40:40;;;;;;;28.60;15.38;;;;;;;;;;5050716;28;20025;-75
2022/12/11 16:43:25;;;;;;;31.30;15.10;;;;;;;;;;5041522;28;20548;-78
2022/12/11 16:45:54;;;;;;;28.88;15.52;;;;;;;;;;5022094;28;20049;-78
2022/12/11 16:48:23;;;;;;;29.70;14.40;;;;;;;;;;5033793;28;20107;-76
2022/12/11 16:51:05;;;;;;;26.38;14.98;;;;;;;;;;5048562;28;20471;-75
2022/12/11 16:53:40;;;;;;;27.67;15.25;;;;;;;;;;5027964;28;20087;-79
2022/12/11 16:56:36;;;;;;;28.30;15.15;;;;;;;;;;5056712;23;20186;-75
2022/12/11 16:59:11;;;;;;;25.27;14.20;;;;;;;;;;5055860;28;20402;-78
2022/12/11 17:02:05;;;;;;;28.65;16.00;;;;;;;;;;5042468;28;20021;-76
2022/12/11 17:04:38;;;;;;;28.40;15.95;;;;;;;;;;5041572;28;20408;-76